EOZ weather

Elorza Airport
Apure, Venezuela

Public forecast

Using degrees Celsius for public forecast. Weather courtesy of forecast.io.

METAR (pilot weather report)

Closest report is Santiago Perez Airport, 71.7 nm (132.8 km) W. Retrieved 2019/09/21 01:00 UTC (59 minutes ago):

SKUC 210100Z 28014KT 2000 -TSRA BKN010CB 24/24 A2987 RMK CB/NE/E

TAF (pilot weather forecast)

Forecast is more than 12 hours old.

Closest forecast is San Antonio Del Tachira Airport, 178.9 nm (331.3 km) WNW. Retrieved 2019/09/20 00:00 UTC (1 day ago):

TAF SVSA 202200Z 2100/2200 34005KT 9999 SCT016 TX32/19Z TN23/09Z PROB30 TEMPO 2101/2105 27003KT 5000 TSSH FEW010CB OVC013